Time,TemperatureF,DewpointF,PressureIn,WindDirection,WindDirectionDegrees,WindSpeedMPH,WindSpeedGustMPH,Humidity,HourlyPrecipIn,Conditions,Clouds,dailyrainin,SoftwareType,DateUTC
2013-09-07 00:13:00,67.0,65.0,30.08,SE,127,0.0,0.0,94,0.00,,,0.01,,2013-09-07 05:13:00,
2013-09-07 00:23:00,66.0,64.0,30.08,SE,127,0.0,0.0,94,0.00,,,0.01,,2013-09-07 05:23:00,
2013-09-07 00:52:00,66.0,65.0,30.08,SE,127,0.0,0.0,95,0.00,,,0.01,,2013-09-07 05:52:00,
2013-09-07 01:13:00,66.0,65.0,30.09,SE,127,0.0,0.0,95,0.00,,,0.01,,2013-09-07 06:13:00,
2013-09-07 01:21:00,65.0,64.0,30.09,SE,127,0.0,0.0,95,0.00,,,0.01,,2013-09-07 06:21:00,
2013-09-07 01:42:00,65.0,64.0,30.09,SE,127,0.0,0.0,95,0.00,,,0.01,,2013-09-07 06:42:00,
2013-09-07 01:52:00,66.0,65.0,30.08,SE,127,0.0,0.0,95,0.00,,,0.01,,2013-09-07 06:52:00,
2013-09-07 02:12:00,65.0,64.0,30.07,SE,127,0.0,0.0,96,0.00,,,0.01,,2013-09-07 07:12:00,
2013-09-07 02:22:00,65.0,64.0,30.07,SE,127,0.0,0.0,96,0.00,,,0.01,,2013-09-07 07:22:00,
2013-09-07 02:42:00,65.0,64.0,30.07,SE,127,0.0,0.0,96,0.00,,,0.01,,2013-09-07 07:42:00,
2013-09-07 02:52:00,66.0,65.0,30.07,SE,127,0.0,0.0,96,0.00,,,0.01,,2013-09-07 07:52:00,
2013-09-07 03:12:00,66.0,65.0,30.07,SE,127,0.0,0.0,96,0.00,,,0.01,,2013-09-07 08:12:00,
2013-09-07 03:22:00,65.0,64.0,30.07,SE,127,0.0,0.0,96,0.00,,,0.01,,2013-09-07 08:22:00,
2013-09-07 03:43:00,64.0,63.0,30.07,SE,127,0.0,0.0,95,0.00,,,0.01,,2013-09-07 08:43:00,
2013-09-07 03:53:00,64.0,63.0,30.07,SE,127,0.0,0.0,96,0.00,,,0.01,,2013-09-07 08:53:00,
2013-09-07 04:12:00,64.0,63.0,30.07,SE,127,0.0,0.0,96,0.00,,,0.01,,2013-09-07 09:12:00,
2013-09-07 04:21:00,65.0,64.0,30.07,SE,127,0.0,0.0,96,0.00,,,0.01,,2013-09-07 09:21:00,
2013-09-07 04:42:00,64.0,63.0,30.07,SE,127,0.0,0.0,97,0.00,,,0.01,,2013-09-07 09:42:00,
2013-09-07 04:52:00,64.0,63.0,30.07,SE,127,0.0,0.0,96,0.00,,,0.01,,2013-09-07 09:52:00,
2013-09-07 05:11:00,64.0,63.0,30.07,SE,127,0.0,0.0,97,0.00,,,0.01,,2013-09-07 10:11:00,
2013-09-07 05:21:00,65.0,64.0,30.07,SE,127,0.0,0.0,97,0.00,,,0.01,,2013-09-07 10:21:00,
2013-09-07 05:41:00,65.0,64.0,30.08,SE,127,0.0,0.0,97,0.00,,,0.01,,2013-09-07 10:41:00,
2013-09-07 05:51:00,65.0,64.0,30.08,SE,127,0.0,0.0,97,0.00,,,0.01,,2013-09-07 10:51:00,
2013-09-07 06:13:00,65.0,64.0,30.08,SE,127,0.0,0.0,96,0.01,,,0.02,,2013-09-07 11:13:00,
2013-09-07 06:23:00,65.0,64.0,30.08,SE,127,0.0,0.0,97,0.01,,,0.02,,2013-09-07 11:23:00,
2013-09-07 06:43:00,64.0,63.0,30.08,SE,127,0.0,0.0,97,0.01,,,0.02,,2013-09-07 11:43:00,
2013-09-07 06:52:00,64.0,63.0,30.08,SE,127,0.0,0.0,97,0.01,,,0.02,,2013-09-07 11:52:00,
2013-09-07 07:12:00,64.0,63.0,30.08,SE,127,0.0,0.0,97,0.00,,,0.02,,2013-09-07 12:12:00,
2013-09-07 07:22:00,64.0,63.0,30.09,SE,127,0.0,0.0,97,0.00,,,0.02,,2013-09-07 12:22:00,
2013-09-07 07:42:00,64.0,63.0,30.09,SE,127,0.0,0.0,98,0.00,,,0.02,,2013-09-07 12:42:00,
2013-09-07 07:52:00,65.0,64.0,30.08,SE,127,0.0,0.0,97,0.00,,,0.02,,2013-09-07 12:52:00,
2013-09-07 08:12:00,66.0,65.0,30.09,SE,127,0.0,0.0,98,0.00,,,0.02,,2013-09-07 13:12:00,
2013-09-07 08:21:00,68.0,67.0,30.09,South,175,0.0,0.0,98,0.00,,,0.02,,2013-09-07 13:21:00,
2013-09-07 08:52:00,70.0,68.0,30.09,SSW,205,0.0,0.0,93,0.00,,,0.02,,2013-09-07 13:52:00,
2013-09-07 09:11:00,71.0,68.0,30.09,SSW,205,0.0,0.0,90,0.00,,,0.02,,2013-09-07 14:11:00,
2013-09-07 09:22:00,72.0,68.0,30.09,SSW,195,0.0,0.0,88,0.00,,,0.01,,2013-09-07 14:22:00,
2013-09-07 09:32:00,72.0,68.0,30.09,SSW,195,0.0,0.0,88,0.00,,,0.01,,2013-09-07 14:32:00,
2013-09-07 09:52:00,73.0,69.0,30.08,SSW,205,0.0,0.0,86,0.00,,,0.01,,2013-09-07 14:52:00,
2013-09-07 10:11:00,75.0,70.0,30.09,South,186,0.0,0.0,84,0.00,,,0.01,,2013-09-07 15:11:00,
2013-09-07 10:23:00,76.0,70.0,30.09,South,189,0.0,3.0,82,0.00,,,0.01,,2013-09-07 15:23:00,
2013-09-07 10:44:00,77.0,70.0,30.09,WSW,241,0.0,0.0,80,0.00,,,0.01,,2013-09-07 15:44:00,
2013-09-07 10:54:00,78.0,71.0,30.09,SSW,196,0.0,3.0,79,0.00,,,0.01,,2013-09-07 15:54:00,
2013-09-07 11:13:00,79.0,71.0,30.09,NW,304,1.0,4.0,76,0.00,,,0.01,,2013-09-07 16:13:00,
2013-09-07 11:24:00,80.0,71.0,30.09,West,263,0.0,7.0,74,0.00,,,0.01,,2013-09-07 16:24:00,
2013-09-07 11:43:00,80.0,71.0,30.09,South,183,0.0,7.0,73,0.00,,,0.01,,2013-09-07 16:43:00,
2013-09-07 11:53:00,81.0,71.0,30.08,South,169,0.0,5.0,71,0.00,,,0.01,,2013-09-07 16:53:00,
2013-09-07 12:12:00,81.0,69.0,30.08,NW,309,0.0,5.0,68,0.00,,,0.01,,2013-09-07 17:12:00,
2013-09-07 12:24:00,82.0,69.0,30.08,South,182,0.0,3.0,66,0.00,,,0.01,,2013-09-07 17:24:00,
2013-09-07 12:43:00,82.0,69.0,30.07,NNW,333,0.0,6.0,66,0.00,,,0.01,,2013-09-07 17:43:00,
2013-09-07 12:52:00,83.0,70.0,30.06,SSW,202,0.0,1.0,65,0.00,,,0.01,,2013-09-07 17:52:00,
2013-09-07 13:13:00,84.0,70.0,30.06,WSW,239,0.0,9.0,62,0.00,,,0.01,,2013-09-07 18:13:00,
2013-09-07 13:22:00,83.0,69.0,30.05,NW,315,0.0,5.0,63,0.00,,,0.01,,2013-09-07 18:22:00,
2013-09-07 13:43:00,84.0,70.0,30.05,WNW,298,0.0,7.0,62,0.00,,,0.01,,2013-09-07 18:43:00,
2013-09-07 13:52:00,84.0,69.0,30.03,SSW,196,0.0,3.0,60,0.00,,,0.01,,2013-09-07 18:52:00,
2013-09-07 14:11:00,83.0,69.0,30.03,WNW,295,0.0,5.0,62,0.00,,,0.01,,2013-09-07 19:11:00,
2013-09-07 14:22:00,84.0,69.0,30.02,South,178,0.0,2.0,60,0.00,,,0.01,,2013-09-07 19:22:00,
2013-09-07 14:52:00,85.0,68.0,30.00,South,178,0.0,6.0,57,0.00,,,0.01,,2013-09-07 19:52:00,
2013-09-07 15:11:00,86.0,69.0,29.99,SSW,192,0.0,2.0,57,0.00,,,0.01,,2013-09-07 20:11:00,
2013-09-07 15:22:00,86.0,69.0,29.99,WNW,286,0.0,5.0,57,0.00,,,0.01,,2013-09-07 20:22:00,
2013-09-07 15:53:00,86.0,69.0,29.98,SSW,210,0.0,1.0,57,0.00,,,0.01,,2013-09-07 20:53:00,
2013-09-07 16:12:00,86.0,68.0,29.97,South,175,0.0,6.0,56,0.00,,,0.01,,2013-09-07 21:12:00,
2013-09-07 16:22:00,86.0,68.0,29.97,SSW,192,0.0,4.0,55,0.00,,,0.01,,2013-09-07 21:22:00,
2013-09-07 16:44:00,86.0,68.0,29.97,SW,221,0.0,4.0,55,0.00,,,0.01,,2013-09-07 21:44:00,
2013-09-07 16:54:00,86.0,69.0,29.97,SSW,201,0.0,1.0,57,0.00,,,0.01,,2013-09-07 21:54:00,
2013-09-07 17:13:00,86.0,68.0,29.96,WSW,237,0.0,1.0,55,0.00,,,0.01,,2013-09-07 22:13:00,
2013-09-07 17:24:00,86.0,69.0,29.96,SSW,198,0.0,0.0,57,0.00,,,0.01,,2013-09-07 22:24:00,
2013-09-07 17:43:00,86.0,68.0,29.96,SSW,203,0.0,1.0,56,0.00,,,0.01,,2013-09-07 22:43:00,
2013-09-07 17:53:00,86.0,69.0,29.97,SW,235,0.0,0.0,57,0.00,,,0.01,,2013-09-07 22:53:00,
2013-09-07 18:12:00,87.0,70.0,29.97,SW,235,0.0,0.0,57,0.00,,,0.01,,2013-09-07 23:12:00,
2013-09-07 18:23:00,86.0,70.0,29.97,SW,235,0.0,0.0,60,0.00,,,0.01,,2013-09-07 23:23:00,
2013-09-07 18:42:00,85.0,70.0,29.97,SW,235,0.0,0.0,62,0.00,,,0.01,,2013-09-07 23:42:00,
2013-09-07 18:53:00,83.0,69.0,29.96,SW,235,0.0,0.0,63,0.00,,,0.01,,2013-09-07 23:53:00,
2013-09-07 19:11:00,82.0,70.0,29.96,SW,235,0.0,0.0,68,0.00,,,0.01,,2013-09-08 00:11:00,
2013-09-07 19:22:00,80.0,71.0,29.96,SW,235,0.0,0.0,75,0.00,,,0.01,,2013-09-08 00:22:00,
2013-09-07 20:42:00,74.0,70.0,29.98,SW,235,0.0,0.0,87,0.00,,,0.01,,2013-09-08 01:42:00,
2013-09-07 20:52:00,73.0,69.0,29.98,SW,235,0.0,0.0,88,0.00,,,0.01,,2013-09-08 01:52:00,
2013-09-07 21:11:00,73.0,70.0,29.98,SW,235,0.0,0.0,89,0.00,,,0.01,,2013-09-08 02:11:00,
2013-09-07 21:23:00,73.0,69.0,29.98,SW,235,0.0,0.0,88,0.00,,,0.01,,2013-09-08 02:23:00,
2013-09-07 21:43:00,73.0,70.0,29.98,SW,235,0.0,0.0,89,0.00,,,0.01,,2013-09-08 02:43:00,
2013-09-07 21:52:00,74.0,70.0,29.98,SW,217,0.0,0.0,88,0.00,,,0.01,,2013-09-08 02:52:00,
2013-09-07 22:12:00,74.0,70.0,29.98,SW,215,0.0,0.0,86,0.00,,,0.01,,2013-09-08 03:12:00,
2013-09-07 22:23:00,75.0,70.0,29.98,SSW,209,0.0,0.0,85,0.00,,,0.01,,2013-09-08 03:23:00,
2013-09-07 22:44:00,74.0,69.0,29.98,SSW,209,0.0,0.0,85,0.00,,,0.01,,2013-09-08 03:44:00,
2013-09-07 22:54:00,75.0,70.0,29.98,SSW,209,0.0,0.0,85,0.00,,,0.01,,2013-09-08 03:54:00,
2013-09-07 23:02:00,-999.0,-99.9,29.98,SSW,201,0.0,0.0,-999,-99.99,,,-99.99,,2013-09-08 04:02:00,
2013-09-07 23:14:00,74.0,70.0,29.98,SSW,201,0.0,0.0,86,0.00,,,0.01,,2013-09-08 04:14:00,
2013-09-07 23:24:00,73.0,69.0,29.98,SSW,206,0.0,0.0,87,0.00,,,0.01,,2013-09-08 04:24:00,
2013-09-07 23:43:00,73.0,69.0,29.98,SSW,205,0.0,0.0,88,0.00,,,0.01,,2013-09-08 04:43:00,
2013-09-07 23:54:00,72.0,69.0,29.98,SSW,209,0.0,0.0,89,0.00,,,0.01,,2013-09-08 04:54:00,